Back to Top

Language: 

My Weather Underground Personal Weather Station Historical Data with Graphs...

Delerius Weather Station Historical Data
Daily Summary for February 2, 2017 Units:  Metric    English   Both
« Previous Day
Next Day »
Daily Weekly Monthly Yearly Custom
  High: Low: Average:
Temperature: 11.1 °C 8.8 °C 10.3 °C
Dew Point: 9.5 °C 6.8 °C 8.6 °C
Humidity: 97 % 78 % 90 %
Wind Speed: 29 km/h 9.7 km/h 19.2 km/h
Wind Gust: 48.3 km/h - -
Wind:- - SSE
Pressure: 997.5 hPa 987.7 hPa -
Precipitation: 0.51 mm    
Historical Graphs
 
 
Tabular Data for February 2, 2017
Time Temperature Dew Point Pressure Wind Wind Speed Wind Gust Humidity Rainfall Rate (Hourly) solar Conditions
00:01 8.9 °C 7.3 °C 997.5 hPa South 12.9 km/h -1607.7 km/h 90 % 0 mm 0 W/m2
00:06 8.9 °C 7.3 °C 997.5 hPa South 12.9 km/h -1607.7 km/h 90 % 0 mm 0 W/m2
00:11 8.9 °C 7.3 °C 997.5 hPa South 12.9 km/h -1607.7 km/h 90 % 0 mm 0 W/m2
00:16 8.9 °C 7.3 °C 997.5 hPa South 12.9 km/h -1607.7 km/h 90 % 0 mm 0 W/m2
00:21 8.9 °C 7.3 °C 997.5 hPa South 12.9 km/h -1607.7 km/h 90 % 0 mm 0 W/m2
00:26 8.8 °C 7.3 °C 997.5 hPa SSW 12.9 km/h -1607.7 km/h 90 % 0 mm 0 W/m2
00:31 8.8 °C 7.3 °C 997.5 hPa SSW 12.9 km/h -1607.7 km/h 90 % 0 mm 0 W/m2
00:36 8.8 °C 7.3 °C 997.5 hPa SSW 12.9 km/h -1607.7 km/h 90 % 0 mm 0 W/m2
00:41 9.1 °C 7.5 °C 997.2 hPa SSW 16.1 km/h -1607.7 km/h 90 % 0 mm 0 W/m2
00:46 9.1 °C 7.5 °C 997.2 hPa SSW 16.1 km/h -1607.7 km/h 90 % 0 mm 0 W/m2
00:51 9.1 °C 7.5 °C 997.2 hPa SSW 16.1 km/h -1607.7 km/h 90 % 0 mm 0 W/m2
00:56 9.3 °C 7.8 °C 997.2 hPa SSW 14.5 km/h -1607.7 km/h 90 % 0 mm 0 W/m2
01:01 9.3 °C 7.8 °C 997.2 hPa SSW 14.5 km/h -1607.7 km/h 90 % 0 mm 0 W/m2
01:06 9.3 °C 7.8 °C 997.2 hPa SSW 14.5 km/h -1607.7 km/h 90 % 0 mm 0 W/m2
01:11 9.4 °C 8.1 °C 996.8 hPa SSW 12.9 km/h -1607.7 km/h 91 % 0 mm 0 W/m2
01:16 9.4 °C 8.1 °C 996.8 hPa SSW 12.9 km/h -1607.7 km/h 91 % 0 mm 0 W/m2
01:21 9.4 °C 8.1 °C 996.8 hPa SSW 12.9 km/h -1607.7 km/h 91 % 0 mm 0 W/m2
01:26 9.5 °C 8.1 °C 996.5 hPa South 16.1 km/h -1607.7 km/h 91 % 0 mm 0 W/m2
01:31 9.5 °C 8.1 °C 996.5 hPa South 16.1 km/h -1607.7 km/h 91 % 0 mm 0 W/m2
01:36 9.5 °C 8.1 °C 996.5 hPa South 16.1 km/h -1607.7 km/h 91 % 0 mm 0 W/m2
01:41 9.7 °C 8.3 °C 996.5 hPa South 16.1 km/h -1607.7 km/h 91 % 0 mm 0 W/m2
01:46 9.7 °C 8.3 °C 996.5 hPa South 16.1 km/h -1607.7 km/h 91 % 0 mm 0 W/m2
01:51 9.7 °C 8.3 °C 996.5 hPa South 16.1 km/h -1607.7 km/h 91 % 0 mm 0 W/m2
01:56 9.6 °C 8.2 °C 996.2 hPa South 14.5 km/h -1607.7 km/h 91 % 0 mm 0 W/m2
02:01 9.6 °C 8.2 °C 996.2 hPa South 14.5 km/h -1607.7 km/h 91 % 0 mm 0 W/m2
02:06 9.6 °C 8.2 °C 996.2 hPa South 14.5 km/h -1607.7 km/h 91 % 0 mm 0 W/m2
02:11 9.6 °C 8.2 °C 996.5 hPa South 12.9 km/h -1607.7 km/h 91 % 0 mm 0 W/m2
02:16 9.6 °C 8.2 °C 996.5 hPa South 12.9 km/h -1607.7 km/h 91 % 0 mm 0 W/m2
02:21 9.6 °C 8.2 °C 996.5 hPa South 12.9 km/h -1607.7 km/h 91 % 0 mm 0 W/m2
02:26 9.5 °C 8.3 °C 996.2 hPa South 9.7 km/h -1607.7 km/h 92 % 0 mm 0 W/m2
02:31 9.5 °C 8.3 °C 996.2 hPa South 9.7 km/h -1607.7 km/h 92 % 0 mm 0 W/m2
02:36 9.5 °C 8.3 °C 996.2 hPa South 9.7 km/h -1607.7 km/h 92 % 0 mm 0 W/m2
02:41 9.4 °C 8.2 °C 996.2 hPa SSE 11.3 km/h -1607.7 km/h 92 % 0 mm 0 W/m2
02:46 9.4 °C 8.2 °C 996.2 hPa SSE 11.3 km/h -1607.7 km/h 92 % 0 mm 0 W/m2
02:51 9.4 °C 8.2 °C 996.2 hPa SSE 11.3 km/h -1607.7 km/h 92 % 0 mm 0 W/m2
02:56 9.5 °C 8.4 °C 996.2 hPa SSE 14.5 km/h -1607.7 km/h 93 % 0 mm 0 W/m2
03:01 9.5 °C 8.4 °C 996.2 hPa SSE 14.5 km/h -1607.7 km/h 93 % 0 mm 0 W/m2
03:06 9.5 °C 8.4 °C 996.2 hPa SSE 14.5 km/h -1607.7 km/h 93 % 0 mm 0 W/m2
03:11 9.6 °C 8.6 °C 995.8 hPa South 12.9 km/h -1607.7 km/h 93 % 0 mm 0 W/m2
03:16 9.6 °C 8.6 °C 995.8 hPa South 12.9 km/h -1607.7 km/h 93 % 0 mm 0 W/m2
03:21 9.6 °C 8.6 °C 995.8 hPa South 12.9 km/h -1607.7 km/h 93 % 0 mm 0 W/m2
03:26 9.6 °C 8.7 °C 996.2 hPa SSE 12.9 km/h -1607.7 km/h 94 % 0 mm 0 W/m2
03:31 9.6 °C 8.7 °C 996.2 hPa SSE 12.9 km/h -1607.7 km/h 94 % 0 mm 0 W/m2
03:36 9.6 °C 8.7 °C 996.2 hPa SSE 12.9 km/h -1607.7 km/h 94 % 0 mm 0 W/m2
03:41 9.7 °C 8.7 °C 995.8 hPa SSE 12.9 km/h -1607.7 km/h 94 % 0 mm 0 W/m2
03:46 9.7 °C 8.7 °C 995.8 hPa SSE 12.9 km/h -1607.7 km/h 94 % 0 mm 0 W/m2
03:51 9.7 °C 8.7 °C 995.8 hPa SSE 12.9 km/h -1607.7 km/h 94 % 0 mm 0 W/m2
03:56 9.7 °C 8.9 °C 995.5 hPa SSE 12.9 km/h -1607.7 km/h 95 % 0 mm 0 W/m2
04:01 9.7 °C 8.9 °C 995.5 hPa SSE 12.9 km/h -1607.7 km/h 95 % 0 mm 0 W/m2
04:06 9.7 °C 8.9 °C 995.5 hPa SSE 12.9 km/h -1607.7 km/h 95 % 0 mm 0 W/m2
04:11 9.7 °C 9.1 °C 995.5 hPa SE 14.5 km/h -1607.7 km/h 96 % 0 mm 0 W/m2
04:16 9.7 °C 9.1 °C 995.5 hPa SE 14.5 km/h -1607.7 km/h 96 % 0 mm 0 W/m2
04:21 9.7 °C 9.1 °C 995.5 hPa SE 14.5 km/h -1607.7 km/h 96 % 0 mm 0 W/m2
04:26 9.7 °C 9.1 °C 995.5 hPa SE 14.5 km/h -1607.7 km/h 96 % 0 mm 0 W/m2
04:31 9.7 °C 9.1 °C 995.5 hPa SE 14.5 km/h -1607.7 km/h 96 % 0 mm 0 W/m2
04:36 9.7 °C 9.1 °C 995.5 hPa SE 14.5 km/h -1607.7 km/h 96 % 0 mm 0 W/m2
04:41 9.8 °C 9.2 °C 995.1 hPa SE 16.1 km/h -1607.7 km/h 96 % 0 mm 0 W/m2
04:46 9.8 °C 9.2 °C 995.1 hPa SE 16.1 km/h -1607.7 km/h 96 % 0 mm 0 W/m2
04:51 9.8 °C 9.2 °C 995.1 hPa SE 16.1 km/h -1607.7 km/h 96 % 0 mm 0 W/m2
04:56 9.8 °C 9.2 °C 994.8 hPa SE 17.7 km/h -1607.7 km/h 96 % 0.25 mm 0 W/m2
05:01 9.8 °C 9.2 °C 994.8 hPa SE 17.7 km/h -1607.7 km/h 96 % 0.25 mm 0 W/m2
05:06 9.8 °C 9.2 °C 994.8 hPa SE 17.7 km/h -1607.7 km/h 96 % 0.25 mm 0 W/m2
05:11 9.8 °C 9.4 °C 994.8 hPa SE 16.1 km/h -1607.7 km/h 97 % 0.25 mm 0 W/m2
05:16 9.8 °C 9.4 °C 994.8 hPa SE 16.1 km/h -1607.7 km/h 97 % 0.25 mm 0 W/m2
05:21 9.8 °C 9.4 °C 994.8 hPa SE 16.1 km/h -1607.7 km/h 97 % 0.25 mm 0 W/m2
05:26 9.8 °C 9.2 °C 994.8 hPa SE 16.1 km/h -1607.7 km/h 96 % 0.25 mm 0 W/m2
05:31 9.8 °C 9.2 °C 994.8 hPa SE 16.1 km/h -1607.7 km/h 96 % 0.25 mm 0 W/m2
05:36 9.8 °C 9.2 °C 994.8 hPa SE 16.1 km/h -1607.7 km/h 96 % 0.25 mm 0 W/m2
05:41 9.9 °C 9.3 °C 994.5 hPa SSE 16.1 km/h -1607.7 km/h 96 % 0.25 mm 0 W/m2
05:46 9.9 °C 9.3 °C 994.5 hPa SSE 16.1 km/h -1607.7 km/h 96 % 0.25 mm 0 W/m2
05:51 9.9 °C 9.3 °C 994.5 hPa SSE 16.1 km/h -1607.7 km/h 96 % 0.25 mm 0 W/m2
05:56 9.9 °C 9.3 °C 994.5 hPa SSE 14.5 km/h -1607.7 km/h 96 % 0 mm 0 W/m2
06:01 9.9 °C 9.3 °C 994.5 hPa SSE 14.5 km/h -1607.7 km/h 96 % 0 mm 0 W/m2
06:06 9.9 °C 9.3 °C 994.5 hPa SSE 14.5 km/h -1607.7 km/h 96 % 0 mm 0 W/m2
06:11 9.9 °C 9.3 °C 994.5 hPa SSE 16.1 km/h -1607.7 km/h 96 % 0 mm 0 W/m2
06:16 9.9 °C 9.3 °C 994.5 hPa SSE 16.1 km/h -1607.7 km/h 96 % 0 mm 0 W/m2
06:21 9.9 °C 9.3 °C 994.5 hPa SSE 16.1 km/h -1607.7 km/h 96 % 0 mm 0 W/m2
06:26 10.1 °C 9.4 °C 994.1 hPa SE 19.3 km/h -1607.7 km/h 96 % 0 mm 0 W/m2
06:31 10.1 °C 9.4 °C 994.1 hPa SE 19.3 km/h -1607.7 km/h 96 % 0 mm 0 W/m2
06:36 10.1 °C 9.4 °C 994.1 hPa SE 19.3 km/h -1607.7 km/h 96 % 0 mm 0 W/m2
06:41 10.1 °C 9.5 °C 994.1 hPa SSE 19.3 km/h -1607.7 km/h 96 % 0 mm 0 W/m2
06:46 10.1 °C 9.5 °C 994.1 hPa SSE 19.3 km/h -1607.7 km/h 96 % 0 mm 0 W/m2
06:51 10.1 °C 9.5 °C 994.1 hPa SSE 19.3 km/h -1607.7 km/h 96 % 0 mm 0 W/m2
06:56 10.1 °C 9.3 °C 993.8 hPa SE 17.7 km/h -1607.7 km/h 95 % 0 mm 0 W/m2
07:01 10.1 °C 9.3 °C 993.8 hPa SE 17.7 km/h -1607.7 km/h 95 % 0 mm 0 W/m2
07:06 10.1 °C 9.3 °C 993.8 hPa SE 17.7 km/h -1607.7 km/h 95 % 0 mm 0 W/m2
07:11 10.2 °C 9.4 °C 993.5 hPa SE 16.1 km/h -1607.7 km/h 95 % 0 mm 0 W/m2
07:16 10.2 °C 9.4 °C 993.5 hPa SE 16.1 km/h -1607.7 km/h 95 % 0 mm 0 W/m2
07:21 10.2 °C 9.4 °C 993.5 hPa SE 16.1 km/h -1607.7 km/h 95 % 0 mm 0 W/m2
07:26 10.2 °C 9.3 °C 993.1 hPa SE 17.7 km/h -1607.7 km/h 94 % 0 mm 0 W/m2
07:31 10.2 °C 9.3 °C 993.1 hPa SE 17.7 km/h -1607.7 km/h 94 % 0 mm 0 W/m2
07:36 10.2 °C 9.3 °C 993.1 hPa SE 17.7 km/h -1607.7 km/h 94 % 0 mm 0 W/m2
07:41 10.3 °C 9.3 °C 993.5 hPa SSE 19.3 km/h -1607.7 km/h 93 % 0 mm 0 W/m2
07:46 10.3 °C 9.3 °C 993.5 hPa SSE 19.3 km/h -1607.7 km/h 93 % 0 mm 0 W/m2
07:51 10.3 °C 9.3 °C 993.5 hPa SSE 19.3 km/h -1607.7 km/h 93 % 0 mm 0 W/m2
07:56 10.4 °C 9.2 °C 993.1 hPa SE 17.7 km/h -1607.7 km/h 92 % 0 mm 0 W/m2
08:01 10.4 °C 9.2 °C 993.1 hPa SE 17.7 km/h -1607.7 km/h 92 % 0 mm 0 W/m2
08:06 10.4 °C 9.2 °C 993.1 hPa SE 17.7 km/h -1607.7 km/h 92 % 0 mm 0 W/m2
08:11 10.3 °C 9.3 °C 993.1 hPa SE 17.7 km/h -1607.7 km/h 93 % 0 mm 0 W/m2
08:16 10.3 °C 9.3 °C 993.1 hPa SE 17.7 km/h -1607.7 km/h 93 % 0 mm 0 W/m2
08:21 10.3 °C 9.3 °C 993.1 hPa SE 17.7 km/h -1607.7 km/h 93 % 0 mm 0 W/m2
08:26 10.2 °C 9.2 °C 993.1 hPa SE 17.7 km/h -1607.7 km/h 94 % 0.25 mm 3 W/m2
08:31 10.2 °C 9.2 °C 993.1 hPa SE 17.7 km/h -1607.7 km/h 94 % 0.25 mm 3 W/m2
08:36 10.2 °C 9.2 °C 993.1 hPa SE 17.7 km/h -1607.7 km/h 94 % 0.25 mm 3 W/m2
08:41 10 °C 9.1 °C 992.8 hPa SSE 19.3 km/h -1607.7 km/h 94 % 0.25 mm 10 W/m2
08:46 10 °C 9.1 °C 992.8 hPa SSE 19.3 km/h -1607.7 km/h 94 % 0.25 mm 10 W/m2
08:51 10 °C 9.1 °C 992.8 hPa SSE 19.3 km/h -1607.7 km/h 94 % 0.25 mm 10 W/m2
08:56 10.1 °C 9 °C 992.8 hPa SSE 20.9 km/h -1607.7 km/h 93 % 0.25 mm 11 W/m2
09:01 10.1 °C 9 °C 992.8 hPa SSE 20.9 km/h -1607.7 km/h 93 % 0.25 mm 11 W/m2
09:06 10.1 °C 9 °C 992.8 hPa SSE 20.9 km/h -1607.7 km/h 93 % 0.25 mm 11 W/m2
09:11 10.2 °C 8.9 °C 992.4 hPa SSE 20.9 km/h -1607.7 km/h 92 % 0.25 mm 18 W/m2
09:16 10.2 °C 8.9 °C 992.4 hPa SSE 20.9 km/h -1607.7 km/h 92 % 0.25 mm 18 W/m2
09:21 10.2 °C 8.9 °C 992.4 hPa SSE 20.9 km/h -1607.7 km/h 92 % 0.25 mm 18 W/m2
09:26 10.3 °C 8.9 °C 992.4 hPa SSE 20.9 km/h -1607.7 km/h 91 % 0 mm 25 W/m2
09:31 10.3 °C 8.9 °C 992.4 hPa SSE 20.9 km/h -1607.7 km/h 91 % 0 mm 25 W/m2
09:36 10.3 °C 8.9 °C 992.4 hPa SSE 20.9 km/h -1607.7 km/h 91 % 0 mm 25 W/m2
09:41 10.3 °C 8.9 °C 992.4 hPa SSE 20.9 km/h -1607.7 km/h 91 % 0 mm 22 W/m2
09:46 10.3 °C 8.9 °C 992.4 hPa SSE 20.9 km/h -1607.7 km/h 91 % 0 mm 22 W/m2
09:51 10.3 °C 8.9 °C 992.4 hPa SSE 20.9 km/h -1607.7 km/h 91 % 0 mm 22 W/m2
09:56 10.3 °C 8.9 °C 992.4 hPa SSE 19.3 km/h -1607.7 km/h 91 % 0 mm 24 W/m2
10:01 10.3 °C 8.9 °C 992.4 hPa SSE 19.3 km/h -1607.7 km/h 91 % 0 mm 24 W/m2
10:06 10.3 °C 8.9 °C 992.4 hPa SSE 19.3 km/h -1607.7 km/h 91 % 0 mm 24 W/m2
10:11 10.3 °C 8.9 °C 992.1 hPa SSE 17.7 km/h -1607.7 km/h 91 % 0 mm 43 W/m2
10:16 10.3 °C 8.9 °C 992.1 hPa SSE 17.7 km/h -1607.7 km/h 91 % 0 mm 43 W/m2
10:21 10.3 °C 8.9 °C 992.1 hPa SSE 17.7 km/h -1607.7 km/h 91 % 0 mm 43 W/m2
10:26 10.3 °C 8.9 °C 992.1 hPa SSE 19.3 km/h -1607.7 km/h 91 % 0 mm 104 W/m2
10:31 10.3 °C 8.9 °C 992.1 hPa SSE 19.3 km/h -1607.7 km/h 91 % 0 mm 104 W/m2
10:36 10.3 °C 8.9 °C 992.1 hPa SSE 19.3 km/h -1607.7 km/h 91 % 0 mm 104 W/m2
10:41 10.4 °C 9.1 °C 991.8 hPa SSE 19.3 km/h -1607.7 km/h 91 % 0 mm 92 W/m2
10:46 10.4 °C 9.1 °C 991.8 hPa SSE 19.3 km/h -1607.7 km/h 91 % 0 mm 92 W/m2
10:51 10.4 °C 9.1 °C 991.8 hPa SSE 19.3 km/h -1607.7 km/h 91 % 0 mm 92 W/m2
10:56 10.4 °C 9.2 °C 991.4 hPa SSE 19.3 km/h -1607.7 km/h 92 % 0 mm 79 W/m2
11:01 10.4 °C 9.2 °C 991.4 hPa SSE 19.3 km/h -1607.7 km/h 92 % 0 mm 79 W/m2
11:06 10.4 °C 9.2 °C 991.4 hPa SSE 19.3 km/h -1607.7 km/h 92 % 0 mm 79 W/m2
11:11 10.3 °C 8.9 °C 991.1 hPa SSE 22.5 km/h -1607.7 km/h 91 % 0 mm 61 W/m2
11:16 10.3 °C 8.9 °C 991.1 hPa SSE 22.5 km/h -1607.7 km/h 91 % 0 mm 61 W/m2
11:21 10.3 °C 8.9 °C 991.1 hPa SSE 22.5 km/h -1607.7 km/h 91 % 0 mm 61 W/m2
11:26 10.3 °C 8.9 °C 990.7 hPa SSE 25.7 km/h -1607.7 km/h 91 % 0 mm 71 W/m2
11:31 10.3 °C 8.9 °C 990.7 hPa SSE 25.7 km/h -1607.7 km/h 91 % 0 mm 71 W/m2
11:36 10.3 °C 8.9 °C 990.7 hPa SSE 25.7 km/h -1607.7 km/h 91 % 0 mm 71 W/m2
11:41 10.4 °C 9.1 °C 990.7 hPa SSE 22.5 km/h -1607.7 km/h 91 % 0 mm 82 W/m2
11:46 10.4 °C 9.1 °C 990.7 hPa SSE 22.5 km/h -1607.7 km/h 91 % 0 mm 82 W/m2
11:51 10.4 °C 9.1 °C 990.7 hPa SSE 22.5 km/h -1607.7 km/h 91 % 0 mm 82 W/m2
11:56 10.4 °C 9 °C 990.4 hPa SSE 22.5 km/h -1607.7 km/h 91 % 0 mm 46 W/m2
12:01 10.4 °C 9 °C 990.4 hPa SSE 22.5 km/h -1607.7 km/h 91 % 0 mm 46 W/m2
12:06 10.4 °C 9 °C 990.4 hPa SSE 22.5 km/h -1607.7 km/h 91 % 0 mm 46 W/m2
12:11 10.5 °C 9.1 °C 990.1 hPa SSE 22.5 km/h -1607.7 km/h 91 % 0 mm 68 W/m2
12:16 10.5 °C 9.1 °C 990.1 hPa SSE 22.5 km/h -1607.7 km/h 91 % 0 mm 68 W/m2
12:21 10.5 °C 9.1 °C 990.1 hPa SSE 22.5 km/h -1607.7 km/h 91 % 0 mm 68 W/m2
12:26 10.7 °C 9.1 °C 990.1 hPa SSE 22.5 km/h -1607.7 km/h 90 % 0 mm 86 W/m2
12:31 10.7 °C 9.1 °C 990.1 hPa SSE 22.5 km/h -1607.7 km/h 90 % 0 mm 86 W/m2
12:36 10.7 °C 9.1 °C 990.1 hPa SSE 22.5 km/h -1607.7 km/h 90 % 0 mm 86 W/m2
12:41 10.8 °C 9.2 °C 990.1 hPa SSE 22.5 km/h -1607.7 km/h 90 % 0 mm 58 W/m2
12:46 10.8 °C 9.2 °C 990.1 hPa SSE 22.5 km/h -1607.7 km/h 90 % 0 mm 58 W/m2
12:51 10.8 °C 9.2 °C 990.1 hPa SSE 22.5 km/h -1607.7 km/h 90 % 0 mm 58 W/m2
12:56 10.8 °C 9.3 °C 989.7 hPa SSE 22.5 km/h -1607.7 km/h 90 % 0 mm 32 W/m2
13:01 10.8 °C 9.3 °C 989.7 hPa SSE 22.5 km/h -1607.7 km/h 90 % 0 mm 32 W/m2
13:06 10.8 °C 9.3 °C 989.7 hPa SSE 22.5 km/h -1607.7 km/h 90 % 0 mm 32 W/m2
13:11 10.9 °C 9.3 °C 989.7 hPa SSE 22.5 km/h -1607.7 km/h 90 % 0 mm 41 W/m2
13:16 10.9 °C 9.3 °C 989.7 hPa SSE 22.5 km/h -1607.7 km/h 90 % 0 mm 41 W/m2
13:21 10.9 °C 9.3 °C 989.7 hPa SSE 22.5 km/h -1607.7 km/h 90 % 0 mm 41 W/m2
13:26 10.9 °C 9.2 °C 989.4 hPa SSE 19.3 km/h -1607.7 km/h 89 % 0 mm 54 W/m2
13:31 10.9 °C 9.2 °C 989.4 hPa SSE 19.3 km/h -1607.7 km/h 89 % 0 mm 54 W/m2
13:36 10.9 °C 9.2 °C 989.4 hPa SSE 19.3 km/h -1607.7 km/h 89 % 0 mm 54 W/m2
13:41 11 °C 9.3 °C 989.1 hPa SE 19.3 km/h -1607.7 km/h 89 % 0 mm 31 W/m2
13:46 11 °C 9.3 °C 989.1 hPa SE 19.3 km/h -1607.7 km/h 89 % 0 mm 31 W/m2
13:51 11 °C 9.3 °C 989.1 hPa SE 19.3 km/h -1607.7 km/h 89 % 0 mm 31 W/m2
13:56 11 °C 9.3 °C 989.1 hPa SSE 19.3 km/h -1607.7 km/h 89 % 0 mm 16 W/m2
14:01 11 °C 9.3 °C 989.1 hPa SSE 19.3 km/h -1607.7 km/h 89 % 0 mm 16 W/m2
14:06 11 °C 9.3 °C 989.1 hPa SSE 19.3 km/h -1607.7 km/h 89 % 0 mm 16 W/m2
14:11 10.9 °C 9.3 °C 989.1 hPa SSE 22.5 km/h -1607.7 km/h 90 % 0 mm 13 W/m2
14:16 10.9 °C 9.3 °C 989.1 hPa SSE 22.5 km/h -1607.7 km/h 90 % 0 mm 13 W/m2
14:21 10.9 °C 9.3 °C 989.1 hPa SSE 22.5 km/h -1607.7 km/h 90 % 0 mm 13 W/m2
14:26 10.7 °C 9.3 °C 989.1 hPa SE 19.3 km/h -1607.7 km/h 91 % 0 mm 13 W/m2
14:31 10.7 °C 9.3 °C 989.1 hPa SE 19.3 km/h -1607.7 km/h 91 % 0 mm 13 W/m2
14:36 10.7 °C 9.3 °C 989.1 hPa SE 19.3 km/h -1607.7 km/h 91 % 0 mm 13 W/m2
14:41 10.6 °C 9.3 °C 988.7 hPa SSE 17.7 km/h -1607.7 km/h 92 % 0 mm 17 W/m2
14:46 10.6 °C 9.3 °C 988.7 hPa SSE 17.7 km/h -1607.7 km/h 92 % 0 mm 17 W/m2
14:51 10.6 °C 9.3 °C 988.7 hPa SSE 17.7 km/h -1607.7 km/h 92 % 0 mm 17 W/m2
14:56 10.6 °C 9.2 °C 989.1 hPa SE 19.3 km/h -1607.7 km/h 91 % 0 mm 45 W/m2
15:01 10.6 °C 9.2 °C 989.1 hPa SE 19.3 km/h -1607.7 km/h 91 % 0 mm 45 W/m2
15:06 10.6 °C 9.2 °C 989.1 hPa SE 19.3 km/h -1607.7 km/h 91 % 0 mm 45 W/m2
15:11 10.7 °C 9.1 °C 988.7 hPa SE 19.3 km/h -1607.7 km/h 90 % 0 mm 22 W/m2
15:40 10.7 °C 8.8 °C 989.1 hPa ESE 16.1 km/h 16.1 km/h 88 % 0 mm 9 W/m2
15:50 10.8 °C 8.7 °C 988.7 hPa SSE 17.7 km/h 20.9 km/h 87 % 0 mm 40 W/m2
15:55 10.8 °C 8.8 °C 988.7 hPa ESE 19.3 km/h 20.9 km/h 87 % 0 mm 46 W/m2
16:00 10.8 °C 8.6 °C 988.7 hPa SSE 19.3 km/h 19.3 km/h 86 % 0 mm 42 W/m2
16:05 10.9 °C 8.6 °C 988.7 hPa SSE 19.3 km/h 19.3 km/h 86 % 0 mm 44 W/m2
16:10 10.9 °C 8.6 °C 988.7 hPa SSE 17.7 km/h 17.7 km/h 86 % 0 mm 32 W/m2
16:15 10.9 °C 8.7 °C 988.7 hPa SE 17.7 km/h 19.3 km/h 86 % 0 mm 21 W/m2
16:20 10.9 °C 8.5 °C 988.7 hPa SE 20.9 km/h 33.8 km/h 85 % 0 mm 7 W/m2
16:25 10.9 °C 8.5 °C 988.7 hPa SSE 20.9 km/h 33.8 km/h 85 % 0 mm 7 W/m2
16:30 10.9 °C 8.5 °C 988.7 hPa South 19.3 km/h 19.3 km/h 85 % 0 mm 7 W/m2
16:35 10.9 °C 8.6 °C 988.7 hPa SSE 16.1 km/h 25.7 km/h 86 % 0 mm 12 W/m2
16:45 11 °C 8.6 °C 988.7 hPa South 22.5 km/h 33.8 km/h 85 % 0 mm 14 W/m2
16:50 10.9 °C 8.5 °C 988.7 hPa SE 19.3 km/h 33.8 km/h 85 % 0 mm 14 W/m2
17:00 10.9 °C 8.5 °C 988.7 hPa South 19.3 km/h 19.3 km/h 85 % 0 mm 0 W/m2
17:05 11 °C 8.4 °C 988.4 hPa SSE 19.3 km/h 33.8 km/h 84 % 0 mm 0 W/m2
17:10 11 °C 8.4 °C 988.7 hPa SE 19.3 km/h 33.8 km/h 84 % 0 mm 0 W/m2
17:15 11.1 °C 8.4 °C 988.7 hPa South 22.5 km/h 33.8 km/h 84 % 0 mm 0 W/m2
17:20 11.1 °C 8.4 °C 988.7 hPa South 22.5 km/h 33.8 km/h 84 % 0 mm 0 W/m2
17:30 11 °C 8.4 °C 988.4 hPa SSE 17.7 km/h 33.8 km/h 84 % 0 mm 0 W/m2
17:35 10.9 °C 8.3 °C 988.4 hPa South 17.7 km/h 33.8 km/h 84 % 0 mm 0 W/m2
17:40 10.9 °C 8.3 °C 988.4 hPa SSE 19.3 km/h 33.8 km/h 84 % 0 mm 0 W/m2
17:45 10.9 °C 8.4 °C 988.7 hPa SSE 20.9 km/h 33.8 km/h 85 % 0 mm 0 W/m2
17:50 10.9 °C 8.4 °C 988.4 hPa SE 20.9 km/h 20.9 km/h 85 % 0 mm 0 W/m2
18:00 10.9 °C 8.4 °C 988.4 hPa SSE 20.9 km/h 20.9 km/h 85 % 0 mm 0 W/m2
18:05 10.9 °C 8.4 °C 988.4 hPa SE 20.9 km/h 24.1 km/h 85 % 0 mm 0 W/m2
18:10 10.9 °C 8.6 °C 988.4 hPa SE 22.5 km/h 22.5 km/h 86 % 0 mm 0 W/m2
18:15 10.8 °C 8.6 °C 988.4 hPa South 20.9 km/h 33.8 km/h 86 % 0 mm 0 W/m2
18:20 10.7 °C 8.5 °C 988 hPa South 17.7 km/h 33.8 km/h 86 % 0 mm 0 W/m2
18:25 10.7 °C 8.7 °C 988 hPa SSE 19.3 km/h 33.8 km/h 87 % 0 mm 0 W/m2
18:35 10.7 °C 8.7 °C 988 hPa SSE 19.3 km/h 33.8 km/h 87 % 0 mm 0 W/m2
18:40 10.7 °C 8.7 °C 988 hPa SSE 19.3 km/h 33.8 km/h 87 % 0 mm 0 W/m2
18:45 10.8 °C 8.7 °C 988 hPa SSE 20.9 km/h 33.8 km/h 87 % 0 mm 0 W/m2
18:55 10.8 °C 8.6 °C 988.4 hPa SSE 20.9 km/h 33.8 km/h 86 % 0 mm 0 W/m2
19:00 10.8 °C 8.6 °C 988.4 hPa South 22.5 km/h 22.5 km/h 86 % 0 mm 0 W/m2
19:09 10.9 °C 8.4 °C 988.4 hPa SSE 17.7 km/h 33.8 km/h 85 % 0 mm 0 W/m2
19:15 10.9 °C 8.5 °C 988.4 hPa South 19.3 km/h 33.8 km/h 85 % 0 mm 0 W/m2
19:20 11 °C 8.6 °C 988.4 hPa South 19.3 km/h 19.3 km/h 85 % 0 mm 0 W/m2
19:25 11.1 °C 8.6 °C 988.4 hPa SSE 19.3 km/h 20.9 km/h 85 % 0 mm 0 W/m2
19:30 11.1 °C 8.4 °C 988.4 hPa South 20.9 km/h 20.9 km/h 84 % 0 mm 0 W/m2
19:40 11.1 °C 8.4 °C 988.4 hPa South 20.9 km/h 20.9 km/h 84 % 0 mm 0 W/m2
19:45 11.1 °C 8.4 °C 988.4 hPa East 22.5 km/h 22.5 km/h 84 % 0 mm 0 W/m2
19:50 11.1 °C 8.4 °C 988.4 hPa ESE 20.9 km/h 20.9 km/h 84 % 0 mm 0 W/m2
19:55 11.1 °C 8.4 °C 988.4 hPa SE 20.9 km/h 25.7 km/h 84 % 0 mm 0 W/m2
20:00 11.1 °C 8.5 °C 988.4 hPa SE 22.5 km/h 22.5 km/h 84 % 0 mm 0 W/m2
20:05 11.1 °C 8.3 °C 988.4 hPa South 24.1 km/h 29 km/h 83 % 0 mm 0 W/m2
20:15 11.1 °C 8.4 °C 988.4 hPa South 20.9 km/h 33.8 km/h 84 % 0 mm 0 W/m2
20:20 10.9 °C 8.5 °C 988.4 hPa SSE 19.3 km/h 33.8 km/h 85 % 0 mm 0 W/m2
20:25 10.8 °C 8.4 °C 988.4 hPa SE 22.5 km/h 33.8 km/h 85 % 0 mm 0 W/m2
20:30 10.8 °C 8.3 °C 988.4 hPa South 22.5 km/h 33.8 km/h 85 % 0 mm 0 W/m2
20:35 10.8 °C 8.4 °C 988 hPa South 24.1 km/h 33.8 km/h 85 % 0 mm 0 W/m2
20:45 10.9 °C 8.2 °C 988 hPa SE 25.7 km/h 33.8 km/h 83 % 0 mm 0 W/m2
20:50 10.9 °C 8 °C 988 hPa SSW 25.7 km/h 25.7 km/h 82 % 0 mm 0 W/m2
20:55 10.9 °C 7.9 °C 988 hPa SE 27.4 km/h 37 km/h 82 % 0 mm 0 W/m2
21:00 10.8 °C 7.9 °C 988 hPa SE 25.7 km/h 33.8 km/h 82 % 0 mm 0 W/m2
21:05 10.7 °C 7.8 °C 988 hPa South 24.1 km/h 33.8 km/h 82 % 0 mm 0 W/m2
21:10 10.7 °C 7.7 °C 988 hPa South 25.7 km/h 43.5 km/h 82 % 0 mm 0 W/m2
21:20 10.6 °C 7.6 °C 988 hPa SSE 25.7 km/h 33.8 km/h 82 % 0 mm 0 W/m2
21:25 10.6 °C 7.6 °C 987.7 hPa SSE 27.4 km/h 33.8 km/h 82 % 0 mm 0 W/m2
21:30 10.5 °C 7.6 °C 988 hPa South 24.1 km/h 33.8 km/h 82 % 0 mm 0 W/m2
21:35 10.5 °C 7.6 °C 988 hPa SSW 22.5 km/h 33.8 km/h 82 % 0 mm 0 W/m2
21:40 10.6 °C 7.6 °C 988 hPa South 25.7 km/h 25.7 km/h 82 % 0 mm 0 W/m2
21:45 10.6 °C 7.6 °C 988 hPa South 25.7 km/h 48.3 km/h 82 % 0 mm 0 W/m2
21:50 10.6 °C 7.5 °C 988 hPa South 29 km/h 37 km/h 81 % 0 mm 0 W/m2
21:55 10.6 °C 7.4 °C 987.7 hPa SSW 27.4 km/h 45.1 km/h 81 % 0 mm 0 W/m2
22:00 10.6 °C 7.4 °C 988 hPa South 27.4 km/h 27.4 km/h 81 % 0 mm 0 W/m2
22:05 10.6 °C 7.4 °C 988 hPa South 27.4 km/h 37 km/h 81 % 0 mm 0 W/m2
22:10 10.6 °C 7.4 °C 988 hPa SSW 25.7 km/h 25.7 km/h 81 % 0 mm 0 W/m2
22:15 10.6 °C 7.5 °C 988 hPa SSE 27.4 km/h 27.4 km/h 81 % 0 mm 0 W/m2
22:25 10.6 °C 7.4 °C 987.7 hPa SSE 22.5 km/h 33.8 km/h 81 % 0 mm 0 W/m2
22:30 10.5 °C 7.4 °C 987.7 hPa South 22.5 km/h 22.5 km/h 81 % 0 mm 0 W/m2
22:35 10.5 °C 7.2 °C 987.7 hPa SSE 25.7 km/h 25.7 km/h 80 % 0 mm 0 W/m2
22:44 10.4 °C 7.2 °C 987.7 hPa SSW 25.7 km/h 29 km/h 80 % 0 mm 0 W/m2
22:50 10.4 °C 7.2 °C 987.7 hPa SSW 27.4 km/h 27.4 km/h 80 % 0 mm 0 W/m2
22:55 10.4 °C 7.2 °C 987.7 hPa SSE 29 km/h 29 km/h 80 % 0 mm 0 W/m2
23:04 10.4 °C 7.1 °C 987.7 hPa South 27.4 km/h 33.8 km/h 80 % 0 mm 0 W/m2
23:10 10.4 °C 7.2 °C 987.7 hPa SSE 29 km/h 33.8 km/h 80 % 0 mm 0 W/m2
23:15 10.5 °C 7 °C 988 hPa SSE 29 km/h 38.6 km/h 79 % 0 mm 0 W/m2
23:20 10.5 °C 7 °C 988 hPa South 27.4 km/h 27.4 km/h 79 % 0 mm 0 W/m2
23:24 10.5 °C 7 °C 988.4 hPa SSW 25.7 km/h 33.8 km/h 79 % 0 mm 0 W/m2
23:30 10.6 °C 6.9 °C 988.4 hPa SSW 25.7 km/h 41.8 km/h 78 % 0 mm 0 W/m2
23:35 10.6 °C 6.9 °C 988.4 hPa South 27.4 km/h 41.8 km/h 78 % 0 mm 0 W/m2
23:40 10.5 °C 6.8 °C 988.4 hPa SW 25.7 km/h 25.7 km/h 78 % 0 mm 0 W/m2
23:45 10.6 °C 6.9 °C 988.4 hPa SSW 25.7 km/h 41.8 km/h 78 % 0 mm 0 W/m2
23:50 10.5 °C 6.8 °C 988.4 hPa South 27.4 km/h 33.8 km/h 78 % 0 mm 0 W/m2
23:55 10.4 °C 6.8 °C 988.4 hPa South 24.1 km/h 33.8 km/h 78 % 0 mm 0 W/m2
Delerius-Weather
Compliments of Weather Underground - 2.25 mb

Data updates at regular intervals.